createdAt,value
2023-03-17T00:00:42.720Z,3.8
2023-03-17T00:01:59.716Z,3.7
2023-03-17T00:03:16.739Z,3.7
2023-03-17T00:04:33.721Z,3.8
2023-03-17T00:05:50.721Z,3.8
2023-03-17T00:07:07.727Z,3.8
2023-03-17T00:08:24.734Z,3.8
2023-03-17T00:09:41.712Z,3.7
2023-03-17T00:10:58.736Z,3.6
2023-03-17T00:12:15.738Z,3.5
2023-03-17T00:13:32.703Z,3.5
2023-03-17T00:14:49.715Z,3.4
2023-03-17T00:16:06.850Z,3.4
2023-03-17T00:17:23.730Z,3.5
2023-03-17T00:18:40.730Z,3.6
2023-03-17T00:19:57.723Z,3.6
2023-03-17T00:21:14.725Z,3.6
2023-03-17T00:22:31.745Z,3.6
2023-03-17T00:23:48.714Z,3.6
2023-03-17T00:25:05.727Z,3.5
2023-03-17T00:26:22.810Z,3.3
2023-03-17T00:27:39.794Z,3.2
2023-03-17T00:28:56.723Z,3.1
2023-03-17T00:30:13.744Z,3
2023-03-17T00:31:30.798Z,3
2023-03-17T00:32:47.833Z,3.1
2023-03-17T00:34:04.743Z,3.3
2023-03-17T00:35:21.743Z,3.4
2023-03-17T00:36:38.992Z,3.5
2023-03-17T00:37:56.661Z,3.5
2023-03-17T00:39:16.349Z,3.5
2023-03-17T00:40:32.756Z,3.5
2023-03-17T00:41:49.780Z,3.5
2023-03-17T00:43:06.780Z,3.5
2023-03-17T00:44:23.757Z,3.6
2023-03-17T00:45:40.795Z,3.6
2023-03-17T00:46:57.953Z,3.7
2023-03-17T00:48:14.790Z,3.7
2023-03-17T00:49:31.846Z,3.8
2023-03-17T00:50:48.749Z,3.7
2023-03-17T00:52:05.791Z,3.6
2023-03-17T00:53:22.800Z,3.5
2023-03-17T00:54:39.767Z,3.5
2023-03-17T00:55:56.758Z,3.4
2023-03-17T00:57:13.887Z,3.3
2023-03-17T00:58:30.767Z,3.3
2023-03-17T00:59:47.894Z,3.3
2023-03-17T01:01:04.842Z,3.3
2023-03-17T01:02:21.896Z,3.3
2023-03-17T01:03:38.834Z,3.5
2023-03-17T01:05:03.942Z,3.5
2023-03-17T01:06:12.760Z,3.5
2023-03-17T01:07:29.822Z,3.5
2023-03-17T01:08:46.796Z,3.4
2023-03-17T01:10:03.798Z,3.3
2023-03-17T01:11:21.216Z,3.1
2023-03-17T01:12:37.935Z,3
2023-03-17T01:13:54.789Z,2.9
2023-03-17T01:15:11.829Z,3
2023-03-17T01:16:29.002Z,3
2023-03-17T01:17:45.778Z,3.1
2023-03-17T01:19:02.893Z,3
2023-03-17T01:20:19.794Z,3
2023-03-17T01:21:36.817Z,3
2023-03-17T01:22:53.799Z,3
2023-03-17T01:24:11.084Z,3.1
2023-03-17T01:25:27.835Z,3.1
2023-03-17T01:26:44.791Z,3
2023-03-17T01:28:01.810Z,3
2023-03-17T01:29:18.864Z,3
2023-03-17T01:30:35.861Z,3
2023-03-17T01:31:52.838Z,3
2023-03-17T01:33:09.813Z,3.1
2023-03-17T01:34:26.833Z,3.1
2023-03-17T01:35:44.042Z,3.1
2023-03-17T01:37:00.805Z,3.3
2023-03-17T01:38:17.805Z,3.4
2023-03-17T01:39:34.893Z,3.5
2023-03-17T01:40:51.865Z,3.4
2023-03-17T01:42:08.879Z,3.4
2023-03-17T01:43:25.845Z,3.3
2023-03-17T01:44:42.873Z,3.3
2023-03-17T01:45:59.851Z,3.4
2023-03-17T01:47:16.831Z,3.6
2023-03-17T01:48:33.892Z,3.8
2023-03-17T01:49:50.827Z,3.9
2023-03-17T01:51:07.847Z,4
2023-03-17T01:52:24.839Z,4
2023-03-17T01:53:41.864Z,3.9
2023-03-17T01:54:59.959Z,3.9
2023-03-17T01:56:19.211Z,3.8
2023-03-17T01:57:35.935Z,3.7
2023-03-17T01:58:52.863Z,3.6
2023-03-17T02:00:09.857Z,3.5
2023-03-17T02:01:27.281Z,3.5
2023-03-17T02:02:43.944Z,3.4
2023-03-17T02:04:01.040Z,3.4
2023-03-17T02:05:17.902Z,3.4
2023-03-17T02:06:44.663Z,3.5
2023-03-17T02:07:53.871Z,3.5
2023-03-17T02:09:10.936Z,3.4
2023-03-17T02:10:28.124Z,3.4
2023-03-17T02:11:44.910Z,3.4
2023-03-17T02:13:01.911Z,3.2
2023-03-17T02:14:19.055Z,3.1
2023-03-17T02:15:35.905Z,3
2023-03-17T02:16:53.054Z,2.9
2023-03-17T02:18:09.946Z,2.9
2023-03-17T02:19:27.052Z,2.9
2023-03-17T02:22:44.861Z,2.9
2023-03-17T02:24:01.942Z,3
2023-03-17T02:25:19.599Z,3
2023-03-17T02:26:36.866Z,3.1
2023-03-17T02:27:53.990Z,3
2023-03-17T02:29:10.962Z,2.9
2023-03-17T02:30:28.273Z,2.9
2023-03-17T02:31:44.904Z,2.9
2023-03-17T02:33:01.979Z,2.9
2023-03-17T02:34:18.992Z,3
2023-03-17T02:35:36.366Z,3.2
2023-03-17T02:36:53.696Z,3.2
2023-03-17T02:38:10.900Z,3.2
2023-03-17T02:39:27.886Z,3.2
2023-03-17T02:40:44.961Z,3.1
2023-03-17T02:42:01.938Z,3.1
2023-03-17T02:43:18.909Z,3.2
2023-03-17T02:44:35.899Z,3.3
2023-03-17T02:45:53.039Z,3.5
2023-03-17T02:47:09.908Z,3.7
2023-03-17T02:48:26.917Z,3.7
2023-03-17T02:49:44.194Z,4
2023-03-17T02:51:00.951Z,4.2
2023-03-17T02:52:17.955Z,4.2
2023-03-17T02:53:34.956Z,4.2
2023-03-17T02:54:51.970Z,4.1
2023-03-17T02:56:08.947Z,3.9
2023-03-17T02:57:25.932Z,3.6
2023-03-17T02:58:42.913Z,3.5
2023-03-17T02:59:59.966Z,3.2
2023-03-17T03:01:17.014Z,3.1
2023-03-17T03:02:34.035Z,3
2023-03-17T03:03:51.052Z,3.2
2023-03-17T03:05:07.943Z,3.2
2023-03-17T03:06:24.945Z,3.3
2023-03-17T03:07:41.962Z,3.3
2023-03-17T03:08:58.967Z,3.3
2023-03-17T03:10:15.931Z,3.3
2023-03-17T03:11:33.014Z,3.2
2023-03-17T03:12:49.949Z,3.2
2023-03-17T03:14:06.933Z,3.2
2023-03-17T03:15:23.945Z,3.1
2023-03-17T03:16:40.985Z,3
2023-03-17T03:17:57.939Z,3
2023-03-17T03:19:14.944Z,3.1
2023-03-17T03:20:32.300Z,3.1
2023-03-17T03:21:49.066Z,3.1
2023-03-17T03:23:05.952Z,3.1
2023-03-17T03:24:23.011Z,3.1
2023-03-17T03:25:39.942Z,2.9
2023-03-17T03:26:57.010Z,2.9
2023-03-17T03:28:13.956Z,2.8
2023-03-17T03:29:30.958Z,2.7
2023-03-17T03:30:48.010Z,2.5
2023-03-17T03:32:05.017Z,2.5
2023-03-17T03:33:21.965Z,2.3
2023-03-17T03:34:38.965Z,2.2
2023-03-17T03:35:56.044Z,2.1
2023-03-17T03:37:13.479Z,2.2
2023-03-17T03:38:30.026Z,2.3
2023-03-17T03:39:46.967Z,2.3
2023-03-17T03:41:04.264Z,2.3
2023-03-17T03:42:21.004Z,2.3
2023-03-17T03:43:37.976Z,2.2
2023-03-17T03:44:55.083Z,2.2
2023-03-17T03:46:12.025Z,2.2
2023-03-17T03:47:29.003Z,2.2
2023-03-17T03:48:45.970Z,2.2
2023-03-17T03:50:02.980Z,2.2
2023-03-17T03:51:20.043Z,2.3
2023-03-17T03:52:36.989Z,2.3
2023-03-17T03:53:54.474Z,2.4
2023-03-17T03:55:11.010Z,2.4
2023-03-17T03:56:28.015Z,2.4
2023-03-17T03:57:44.988Z,2.4
2023-03-17T03:59:01.998Z,2.4
2023-03-17T04:00:18.980Z,2.4
2023-03-17T04:01:36.099Z,2.5
2023-03-17T04:02:53.202Z,2.4
2023-03-17T04:04:10.050Z,2.5
2023-03-17T04:05:27.468Z,2.5
2023-03-17T04:06:44.098Z,2.5
2023-03-17T04:08:01.483Z,2.3
2023-03-17T04:09:18.579Z,2.1
2023-03-17T04:10:35.996Z,2
2023-03-17T04:11:52.998Z,1.9
2023-03-17T04:13:10.001Z,1.9
2023-03-17T04:14:27.036Z,1.9
2023-03-17T04:15:44.683Z,1.9
2023-03-17T04:17:02.008Z,1.8
2023-03-17T04:18:19.061Z,1.8
2023-03-17T04:19:36.027Z,1.8
2023-03-17T04:20:53.228Z,2
2023-03-17T04:22:10.036Z,2
2023-03-17T04:23:27.012Z,2
2023-03-17T04:24:44.039Z,2.1
2023-03-17T04:26:01.049Z,2
2023-03-17T04:27:18.047Z,1.9
2023-03-17T04:28:35.088Z,1.9
2023-03-17T04:29:52.024Z,1.8
2023-03-17T04:31:10.115Z,1.8
2023-03-17T04:32:27.295Z,1.8
2023-03-17T04:33:44.329Z,1.9
2023-03-17T04:35:01.040Z,2
2023-03-17T04:36:18.093Z,2
2023-03-17T04:37:35.253Z,2
2023-03-17T04:38:52.042Z,2.1
2023-03-17T04:40:09.050Z,2.1
2023-03-17T04:41:26.139Z,2.1
2023-03-17T04:42:43.031Z,2.1
2023-03-17T04:44:00.035Z,2.1
2023-03-17T04:45:17.584Z,2.1
2023-03-17T04:46:34.102Z,2.1
2023-03-17T04:47:51.304Z,2.2
2023-03-17T04:49:08.732Z,2.2
2023-03-17T04:50:26.046Z,2.3
2023-03-17T04:51:43.102Z,2.3
2023-03-17T04:53:00.105Z,2.3
2023-03-17T04:54:17.057Z,2.3
2023-03-17T04:55:34.063Z,2.4
2023-03-17T04:56:51.083Z,2.3
2023-03-17T04:58:09.220Z,2.2
2023-03-17T04:59:25.091Z,2.1
2023-03-17T05:00:42.131Z,2.2
2023-03-17T05:01:59.175Z,2.2
2023-03-17T05:03:26.266Z,2.3
2023-03-17T05:04:33.086Z,2.3
2023-03-17T05:05:50.073Z,2.4
2023-03-17T05:07:07.088Z,2.4
2023-03-17T05:08:24.075Z,2.5
2023-03-17T05:09:41.066Z,2.6
2023-03-17T05:10:58.152Z,2.7
2023-03-17T05:12:15.166Z,2.7
2023-03-17T05:13:32.169Z,2.7
2023-03-17T05:14:49.084Z,2.8
2023-03-17T05:16:06.674Z,2.9
2023-03-17T05:17:23.125Z,3.1
2023-03-17T05:18:40.086Z,3.2
2023-03-17T05:19:57.139Z,3.4
2023-03-17T05:21:14.195Z,3.6
2023-03-17T05:22:31.143Z,3.9
2023-03-17T05:23:48.115Z,4.1
2023-03-17T05:25:05.577Z,4.1
2023-03-17T05:26:22.094Z,4.2
2023-03-17T05:27:39.244Z,4.2
2023-03-17T05:28:56.919Z,4.3
2023-03-17T05:30:14.093Z,4.5
2023-03-17T05:31:31.123Z,4.8
2023-03-17T05:32:48.157Z,5
2023-03-17T05:34:05.129Z,5.3
2023-03-17T05:35:22.136Z,5.5
2023-03-17T05:36:40.075Z,5.7
2023-03-17T05:37:57.246Z,6.2
2023-03-17T05:39:14.740Z,6.6
2023-03-17T05:40:31.466Z,6.9
2023-03-17T05:41:48.175Z,7.2
2023-03-17T05:43:05.149Z,7.2
2023-03-17T05:44:22.139Z,7.2
2023-03-17T05:45:39.133Z,7.2
2023-03-17T05:46:56.824Z,7.2
2023-03-17T05:48:14.172Z,7.3
2023-03-17T05:49:31.181Z,7.3
2023-03-17T05:50:48.195Z,7.4
2023-03-17T05:52:05.185Z,7.5
2023-03-17T05:53:22.183Z,7.8
2023-03-17T05:54:39.302Z,8
2023-03-17T05:55:56.216Z,8.3
2023-03-17T05:57:13.248Z,8.5
2023-03-17T05:58:30.262Z,8.7
2023-03-17T05:59:47.176Z,8.9
2023-03-17T06:01:04.142Z,9.2
2023-03-17T06:02:21.206Z,9.2
2023-03-17T06:03:38.326Z,9.3
2023-03-17T06:04:55.198Z,9.5
2023-03-17T06:06:12.282Z,9.5
2023-03-17T06:07:41.102Z,9.6
2023-03-17T06:08:49.483Z,9.6
2023-03-17T06:10:07.225Z,9.6
2023-03-17T06:11:25.079Z,9.5
2023-03-17T06:12:42.293Z,9.3
2023-03-17T06:14:00.587Z,9.1
2023-03-17T06:15:18.533Z,8.9
2023-03-17T06:16:36.305Z,8.8
2023-03-17T06:17:53.320Z,9
2023-03-17T06:19:10.525Z,9.1
2023-03-17T06:20:28.689Z,9.2
2023-03-17T06:21:46.968Z,9.4
2023-03-17T06:23:05.699Z,9
2023-03-17T06:24:22.318Z,8.7
2023-03-17T06:25:39.328Z,8.5
2023-03-17T06:26:56.298Z,8.4
2023-03-17T06:28:13.384Z,8.3
2023-03-17T06:29:30.733Z,8.2
2023-03-17T06:30:48.362Z,8.4
2023-03-17T06:32:19.116Z,8.4
2023-03-17T06:33:22.205Z,8.2
2023-03-17T06:34:39.208Z,8.1
2023-03-17T06:35:56.390Z,7.9
2023-03-17T06:37:13.269Z,8
2023-03-17T06:38:30.198Z,8.1
2023-03-17T06:39:47.199Z,8.1
2023-03-17T06:41:04.238Z,7.8
2023-03-17T06:42:21.225Z,7.7
2023-03-17T06:43:38.219Z,7.6
2023-03-17T06:44:55.260Z,7.7
2023-03-17T06:46:12.216Z,7.7
2023-03-17T06:47:29.232Z,7.9
2023-03-17T06:48:46.228Z,7.8
2023-03-17T06:50:03.338Z,7.8
2023-03-17T06:51:20.324Z,8
2023-03-17T06:52:37.244Z,8
2023-03-17T06:53:54.242Z,8.1
2023-03-17T06:55:11.249Z,8.4
2023-03-17T06:56:30.422Z,8.6
2023-03-17T06:57:45.206Z,8.7
2023-03-17T06:59:02.267Z,8.7
2023-03-17T07:00:19.295Z,8.5
2023-03-17T07:01:36.264Z,8.4
2023-03-17T07:02:53.222Z,8.3
2023-03-17T07:04:10.250Z,8.3
2023-03-17T07:05:28.174Z,8.4
2023-03-17T07:06:45.814Z,8.3
2023-03-17T07:08:02.250Z,8.3
2023-03-17T07:09:19.270Z,8.3
2023-03-17T07:10:36.270Z,8.4
2023-03-17T07:11:53.266Z,8.4
2023-03-17T07:13:10.243Z,8.7
2023-03-17T07:14:27.235Z,8.9
2023-03-17T07:15:44.266Z,9.1
2023-03-17T07:17:01.244Z,9.4
2023-03-17T07:18:18.547Z,9.4
2023-03-17T07:19:35.672Z,9.3
2023-03-17T07:20:52.267Z,9.3
2023-03-17T07:22:10.128Z,9.5
2023-03-17T07:23:27.306Z,9.9
2023-03-17T07:24:44.286Z,10.4
2023-03-17T07:26:01.284Z,10.2
2023-03-17T07:27:19.409Z,10.1
2023-03-17T07:28:35.291Z,10
2023-03-17T07:29:52.372Z,9.9
2023-03-17T07:31:09.440Z,9.9
2023-03-17T07:32:26.299Z,9.7
2023-03-17T07:33:43.322Z,9.5
2023-03-17T07:35:00.462Z,9.4
2023-03-17T07:36:17.271Z,9.6
2023-03-17T07:37:34.284Z,9.6
2023-03-17T07:38:52.088Z,9.4
2023-03-17T07:40:09.292Z,9.3
2023-03-17T07:41:26.848Z,9.4
2023-03-17T07:42:44.306Z,9.6
2023-03-17T07:44:01.352Z,9.4
2023-03-17T07:45:18.311Z,9.2
2023-03-17T07:46:35.279Z,8.9
2023-03-17T07:47:52.537Z,8.8
2023-03-17T07:49:09.297Z,8.8
2023-03-17T07:50:26.305Z,8.9
2023-03-17T07:51:43.360Z,9.2
2023-03-17T07:53:00.365Z,9.2
2023-03-17T07:54:17.301Z,9.2
2023-03-17T07:55:34.309Z,9.3
2023-03-17T07:56:51.374Z,9.3
2023-03-17T07:58:08.851Z,9.5
2023-03-17T07:59:26.263Z,9.9
2023-03-17T08:00:43.468Z,9.9
2023-03-17T08:02:00.390Z,9.8
2023-03-17T08:03:17.370Z,9.7
2023-03-17T08:04:34.728Z,9.7
2023-03-17T08:05:51.368Z,9.9
2023-03-17T08:07:08.872Z,10.1
2023-03-17T08:08:26.338Z,10.1
2023-03-17T08:09:43.463Z,10.2
2023-03-17T08:11:00.343Z,10.3
2023-03-17T08:12:17.387Z,10.3
2023-03-17T08:13:34.339Z,10.4
2023-03-17T08:14:51.416Z,10.6
2023-03-17T08:16:08.387Z,10.7
2023-03-17T08:17:25.346Z,10.7
2023-03-17T08:18:42.344Z,10.7
2023-03-17T08:19:59.550Z,10.7
2023-03-17T08:21:17.058Z,10.5
2023-03-17T08:22:35.509Z,10.5
2023-03-17T08:23:52.622Z,10
2023-03-17T08:25:10.559Z,9.7
2023-03-17T08:26:27.492Z,9.5
2023-03-17T08:27:45.644Z,9.7
2023-03-17T08:29:04.699Z,9.7
2023-03-17T08:30:22.974Z,9.9
2023-03-17T08:31:40.591Z,10
2023-03-17T08:32:57.547Z,10.2
2023-03-17T08:34:15.611Z,10.5
2023-03-17T08:35:32.746Z,10.6
2023-03-17T08:36:49.807Z,10.6
2023-03-17T08:38:08.547Z,10.6
2023-03-17T08:39:26.524Z,10.7
2023-03-17T08:40:43.592Z,11
2023-03-17T08:42:03.083Z,10.9
2023-03-17T08:43:20.498Z,10.8
2023-03-17T08:44:39.079Z,11.2
2023-03-17T08:45:56.550Z,11.6
2023-03-17T08:47:13.505Z,12.2
2023-03-17T08:48:30.479Z,12.2
2023-03-17T08:49:47.562Z,12.1
2023-03-17T08:51:04.720Z,12.2
2023-03-17T08:52:22.376Z,12.3
2023-03-17T08:53:39.572Z,12.2
2023-03-17T08:54:57.718Z,12.2
2023-03-17T08:56:16.085Z,11.8
2023-03-17T08:57:33.820Z,11.5
2023-03-17T08:58:51.696Z,11.5
2023-03-17T09:00:09.492Z,11.5
2023-03-17T09:01:28.090Z,11.5
2023-03-17T09:02:45.710Z,11.6
2023-03-17T09:04:03.614Z,11.7
2023-03-17T09:05:21.589Z,11.7
2023-03-17T09:06:42.341Z,11.6
2023-03-17T09:07:56.578Z,11.6
2023-03-17T09:09:14.177Z,11.7
2023-03-17T09:10:31.755Z,11.6
2023-03-17T09:11:48.509Z,11.6
2023-03-17T09:13:05.528Z,11.5
2023-03-17T09:14:22.625Z,11.3
2023-03-17T09:15:39.519Z,11.3
2023-03-17T09:16:57.500Z,11.3
2023-03-17T09:18:14.698Z,11.4
2023-03-17T09:19:32.689Z,11.3
2023-03-17T09:20:51.077Z,11.3
2023-03-17T09:22:08.574Z,11.3
2023-03-17T09:23:26.774Z,11.4
2023-03-17T09:24:44.648Z,11.4
2023-03-17T09:26:02.819Z,11.3
2023-03-17T09:27:20.577Z,11.2
2023-03-17T09:28:37.542Z,11.2
2023-03-17T09:29:54.522Z,11.2
2023-03-17T09:31:11.754Z,11.3
2023-03-17T09:32:30.180Z,11.3
2023-03-17T09:33:47.541Z,11.6
2023-03-17T09:35:04.526Z,12
2023-03-17T09:36:21.676Z,12.4
2023-03-17T09:37:39.569Z,12.8
2023-03-17T09:38:57.566Z,12.8
2023-03-17T09:40:14.526Z,12.6
2023-03-17T09:41:32.815Z,12.7
2023-03-17T09:42:50.844Z,12.7
2023-03-17T09:44:08.593Z,12.9
2023-03-17T09:45:26.570Z,12.8
2023-03-17T09:46:46.862Z,12.8
2023-03-17T09:48:04.614Z,12.8
2023-03-17T09:49:21.552Z,12.9
2023-03-17T09:50:38.575Z,13
2023-03-17T09:51:55.620Z,13
2023-03-17T09:53:12.553Z,12.9
2023-03-17T09:54:29.543Z,12.9
2023-03-17T09:55:46.626Z,12.9
2023-03-17T09:57:03.625Z,12.8
2023-03-17T09:58:20.598Z,12.7
2023-03-17T09:59:37.713Z,12.8
2023-03-17T10:00:55.649Z,12.8
2023-03-17T10:02:12.571Z,13
2023-03-17T10:03:30.580Z,13.1
2023-03-17T10:04:47.682Z,13.2
2023-03-17T10:06:04.754Z,13.3
2023-03-17T10:07:23.203Z,13.3
2023-03-17T10:08:40.746Z,13.2
2023-03-17T10:09:58.815Z,13.1
2023-03-17T10:11:15.598Z,13.1
2023-03-17T10:12:32.622Z,13
2023-03-17T10:13:51.020Z,13
2023-03-17T10:15:07.635Z,13.2
2023-03-17T10:16:24.642Z,13.2
2023-03-17T10:17:41.624Z,13.4
2023-03-17T10:18:58.636Z,13.5
2023-03-17T10:20:15.650Z,13.4
2023-03-17T10:21:32.610Z,13.4
2023-03-17T10:22:49.628Z,13.3
2023-03-17T10:24:07.249Z,13.4
2023-03-17T10:25:24.610Z,13.4
2023-03-17T10:26:41.605Z,13.4
2023-03-17T10:27:58.618Z,13.5
2023-03-17T10:29:15.659Z,13.5
2023-03-17T10:30:33.992Z,13.4
2023-03-17T10:31:51.644Z,13.6
2023-03-17T10:33:10.274Z,13.4
2023-03-17T10:34:27.775Z,13.4
2023-03-17T10:35:44.738Z,13.4
2023-03-17T10:37:02.923Z,13.7
2023-03-17T10:38:20.822Z,14
2023-03-17T10:39:38.690Z,14.2
2023-03-17T10:40:56.842Z,14.5
2023-03-17T10:42:14.651Z,14.8
2023-03-17T10:43:32.110Z,14.8
2023-03-17T10:44:49.800Z,15
2023-03-17T10:46:06.689Z,15.3
2023-03-17T10:47:24.713Z,15
2023-03-17T10:48:42.786Z,14.8
2023-03-17T10:50:00.761Z,14.4
2023-03-17T10:51:19.725Z,14.1
2023-03-17T10:52:37.797Z,14.1
2023-03-17T10:53:55.866Z,14.4
2023-03-17T10:55:14.650Z,14.9
2023-03-17T10:56:33.316Z,15.2
2023-03-17T10:57:50.630Z,15.3
2023-03-17T10:59:07.688Z,15.3
2023-03-17T11:00:24.998Z,15.2
2023-03-17T11:01:43.256Z,15
2023-03-17T11:03:00.688Z,15.1
2023-03-17T11:04:17.725Z,15.2
2023-03-17T11:05:34.679Z,15.2
2023-03-17T11:06:51.916Z,15.2
2023-03-17T11:08:09.727Z,15.4
2023-03-17T11:09:26.656Z,15.2
2023-03-17T11:10:44.680Z,15
2023-03-17T11:12:01.696Z,15
2023-03-17T11:13:19.734Z,15
2023-03-17T11:14:37.752Z,14.9
2023-03-17T11:15:54.783Z,14.9
2023-03-17T11:17:12.398Z,15
2023-03-17T11:18:30.990Z,14.9
2023-03-17T11:19:47.703Z,14.8
2023-03-17T11:21:04.721Z,15
2023-03-17T11:22:21.685Z,14.9
2023-03-17T11:23:38.783Z,14.7
2023-03-17T11:24:55.835Z,14.5
2023-03-17T11:26:12.718Z,14.6
2023-03-17T11:27:29.687Z,14.4
2023-03-17T11:28:47.868Z,14.3
2023-03-17T11:30:05.787Z,14.4
2023-03-17T11:31:22.782Z,14.3
2023-03-17T11:32:40.798Z,14.3
2023-03-17T11:33:58.668Z,14.3
2023-03-17T11:35:15.833Z,14.2
2023-03-17T11:36:32.734Z,14.2
2023-03-17T11:37:49.875Z,14.4
2023-03-17T11:39:08.486Z,14.5
2023-03-17T11:40:26.121Z,14.8
2023-03-17T11:41:44.246Z,15.1
2023-03-17T11:43:01.758Z,15.3
2023-03-17T11:44:18.910Z,15.3
2023-03-17T11:45:36.850Z,15.3
2023-03-17T11:46:53.889Z,15.1
2023-03-17T11:48:11.732Z,15.1
2023-03-17T11:49:28.749Z,15
2023-03-17T11:50:45.797Z,14.9
2023-03-17T11:52:02.816Z,15
2023-03-17T11:53:20.883Z,15
2023-03-17T11:54:37.944Z,14.9
2023-03-17T11:55:55.803Z,14.8
2023-03-17T11:57:13.076Z,14.8
2023-03-17T11:58:30.939Z,14.8
2023-03-17T11:59:49.096Z,14.9
2023-03-17T12:01:06.970Z,15
2023-03-17T12:02:24.855Z,15.1
2023-03-17T12:03:42.820Z,15.1
2023-03-17T12:05:01.287Z,15.2
2023-03-17T12:06:18.773Z,15.1
2023-03-17T12:07:38.086Z,15.1
2023-03-17T12:08:55.919Z,14.8
2023-03-17T12:10:12.840Z,14.6
2023-03-17T12:11:31.005Z,14.5
2023-03-17T12:12:48.865Z,14.6
2023-03-17T12:14:06.865Z,14.6
2023-03-17T12:15:23.690Z,14.7
2023-03-17T12:16:40.763Z,14.6
2023-03-17T12:17:57.967Z,14.5
2023-03-17T12:19:15.933Z,14.5
2023-03-17T12:20:34.050Z,14.4
2023-03-17T12:21:50.795Z,14.5
2023-03-17T12:23:08.269Z,14.5
2023-03-17T12:24:25.832Z,14.7
2023-03-17T12:25:42.979Z,14.9
2023-03-17T12:27:01.108Z,15
2023-03-17T12:28:18.770Z,15.1
2023-03-17T12:29:36.277Z,15.1
2023-03-17T12:30:53.890Z,15.1
2023-03-17T12:32:11.367Z,15
2023-03-17T12:33:28.918Z,14.9
2023-03-17T12:34:50.440Z,14.7
2023-03-17T12:36:07.824Z,14.7
2023-03-17T12:37:24.838Z,14.9
2023-03-17T12:38:41.831Z,15
2023-03-17T12:40:00.147Z,15.2
2023-03-17T12:41:18.082Z,15.2
2023-03-17T12:42:35.984Z,15.2
2023-03-17T12:43:54.073Z,15.2
2023-03-17T12:45:11.822Z,15.2
2023-03-17T12:46:30.121Z,15.1
2023-03-17T12:47:48.205Z,15.1
2023-03-17T12:49:05.917Z,15.4
2023-03-17T12:50:22.837Z,15.4
2023-03-17T12:51:39.815Z,15.4
2023-03-17T12:52:56.916Z,15.5
2023-03-17T12:54:14.842Z,15.6
2023-03-17T12:55:32.123Z,15.5
2023-03-17T12:56:48.840Z,15.3
2023-03-17T12:58:06.817Z,15.2
2023-03-17T12:59:23.696Z,15.2
2023-03-17T13:00:40.746Z,15.1
2023-03-17T13:01:57.807Z,15.1
2023-03-17T13:03:14.834Z,15.2
2023-03-17T13:04:31.730Z,15.3
2023-03-17T13:05:48.734Z,15.2
2023-03-17T13:07:05.718Z,15.3
2023-03-17T13:08:22.718Z,15.3
2023-03-17T13:09:39.754Z,15.4
2023-03-17T13:10:57.107Z,15.8
2023-03-17T13:12:13.812Z,15.8
2023-03-17T13:13:30.715Z,15.8
2023-03-17T13:14:47.732Z,15.6
2023-03-17T13:16:04.780Z,15.4
2023-03-17T13:17:21.781Z,15.3
2023-03-17T13:18:38.721Z,15.2
2023-03-17T13:19:55.779Z,15
2023-03-17T13:21:12.773Z,14.9
2023-03-17T13:22:29.727Z,15
2023-03-17T13:23:46.810Z,15
2023-03-17T13:25:03.745Z,15
2023-03-17T13:26:20.783Z,15
2023-03-17T13:27:37.784Z,14.9
2023-03-17T13:28:54.766Z,15
2023-03-17T13:30:11.760Z,15.2
2023-03-17T13:31:28.794Z,15.2
2023-03-17T13:32:45.801Z,15.1
2023-03-17T13:34:02.794Z,15.1
2023-03-17T13:35:19.768Z,14.9
2023-03-17T13:36:36.769Z,14.8
2023-03-17T13:37:53.761Z,14.9
2023-03-17T13:39:19.105Z,15
2023-03-17T13:40:27.756Z,15.1
2023-03-17T13:41:44.973Z,15.1
2023-03-17T13:43:01.800Z,15
2023-03-17T13:44:18.799Z,15.2
2023-03-17T13:45:35.968Z,15.2
2023-03-17T13:46:52.890Z,15.1
2023-03-17T13:48:09.778Z,15.1
2023-03-17T13:49:26.833Z,15.1
2023-03-17T13:50:43.919Z,15
2023-03-17T13:52:00.831Z,15.1
2023-03-17T13:53:17.791Z,15.1
2023-03-17T13:54:34.890Z,15.2
2023-03-17T13:55:51.935Z,15.3
2023-03-17T13:57:08.859Z,15.4
2023-03-17T13:58:25.788Z,15.4
2023-03-17T13:59:42.831Z,15.4
2023-03-17T14:00:59.871Z,15.4
2023-03-17T14:02:16.798Z,15.3
2023-03-17T14:03:33.881Z,15.3
2023-03-17T14:04:50.792Z,15.3
2023-03-17T14:06:07.839Z,15.2
2023-03-17T14:07:24.807Z,15.3
2023-03-17T14:08:41.857Z,15.4
2023-03-17T14:09:58.804Z,15.4
2023-03-17T14:11:15.811Z,15.4
2023-03-17T14:12:32.826Z,15.4
2023-03-17T14:13:49.838Z,15.4
2023-03-17T14:15:08.346Z,15.5
2023-03-17T14:16:23.812Z,15.6
2023-03-17T14:17:40.804Z,15.6
2023-03-17T14:18:57.854Z,15.6
2023-03-17T14:20:14.878Z,15.6
2023-03-17T14:21:31.841Z,15.8
2023-03-17T14:22:49.074Z,15.8
2023-03-17T14:24:06.936Z,15.7
2023-03-17T14:25:24.545Z,15.6
2023-03-17T14:26:42.816Z,15.6
2023-03-17T14:27:59.820Z,15.5
2023-03-17T14:29:16.832Z,15.5
2023-03-17T14:30:33.887Z,15.5
2023-03-17T14:31:50.886Z,15.5
2023-03-17T14:33:07.905Z,15.7
2023-03-17T14:34:24.848Z,15.9
2023-03-17T14:35:41.906Z,15.9
2023-03-17T14:36:58.864Z,16
2023-03-17T14:38:15.868Z,15.9
2023-03-17T14:39:32.854Z,15.9
2023-03-17T14:40:49.885Z,16
2023-03-17T14:42:06.854Z,15.9
2023-03-17T14:43:23.862Z,16.1
2023-03-17T14:44:40.871Z,16.1
2023-03-17T14:45:58.047Z,16
2023-03-17T14:47:14.867Z,16
2023-03-17T14:48:32.088Z,16
2023-03-17T14:49:49.073Z,16
2023-03-17T14:51:07.585Z,16.1
2023-03-17T14:52:26.026Z,16
2023-03-17T14:53:43.238Z,15.9
2023-03-17T14:55:01.068Z,15.9
2023-03-17T14:56:18.156Z,15.8
2023-03-17T14:57:36.769Z,15.7
2023-03-17T14:58:54.087Z,15.7
2023-03-17T15:00:11.604Z,15.8
2023-03-17T15:01:29.173Z,16
2023-03-17T15:02:47.054Z,16.1
2023-03-17T15:04:06.059Z,16
2023-03-17T15:05:23.224Z,15.9
2023-03-17T15:06:43.702Z,15.9
2023-03-17T15:08:04.387Z,15.9
2023-03-17T15:09:26.217Z,15.8
2023-03-17T15:10:43.118Z,15.8
2023-03-17T15:12:00.401Z,15.8
2023-03-17T15:13:18.118Z,15.7
2023-03-17T15:14:36.359Z,15.7
2023-03-17T15:15:54.215Z,15.6
2023-03-17T15:17:12.099Z,15.5
2023-03-17T15:18:29.467Z,15.6
2023-03-17T15:19:47.055Z,15.5
2023-03-17T15:21:04.145Z,15.3
2023-03-17T15:22:21.341Z,15.2
2023-03-17T15:23:39.386Z,15
2023-03-17T15:24:59.508Z,14.8
2023-03-17T15:26:18.053Z,14.8
2023-03-17T15:27:35.175Z,14.7
2023-03-17T15:28:53.242Z,14.7
2023-03-17T15:30:12.491Z,14.7
2023-03-17T15:31:30.485Z,14.6
2023-03-17T15:32:49.121Z,14.6
2023-03-17T15:34:07.091Z,14.7
2023-03-17T15:35:24.407Z,14.7
2023-03-17T15:36:42.179Z,14.7
2023-03-17T15:38:00.191Z,14.7
2023-03-17T15:39:17.381Z,14.8
2023-03-17T15:40:35.134Z,14.7
2023-03-17T15:41:52.451Z,14.7
2023-03-17T15:43:11.995Z,14.6
2023-03-17T15:44:31.117Z,14.6
2023-03-17T15:45:48.072Z,14.6
2023-03-17T15:47:06.784Z,14.7
2023-03-17T15:48:24.072Z,14.6
2023-03-17T15:49:42.366Z,14.6
2023-03-17T15:51:01.303Z,14.5
2023-03-17T15:52:20.051Z,14.3
2023-03-17T15:53:38.139Z,14.2
2023-03-17T15:54:55.274Z,14.3
2023-03-17T15:56:13.233Z,14.3
2023-03-17T15:57:31.086Z,14.3
2023-03-17T15:58:48.136Z,14.2
2023-03-17T16:00:05.021Z,14.1
2023-03-17T16:01:22.112Z,14.1
2023-03-17T16:02:39.028Z,14.1
2023-03-17T16:03:56.095Z,14
2023-03-17T16:05:12.995Z,13.9
2023-03-17T16:06:30.059Z,13.8
2023-03-17T16:07:47.012Z,13.8
2023-03-17T16:09:04.283Z,13.8
2023-03-17T16:10:21.032Z,13.8
2023-03-17T16:11:40.325Z,13.8
2023-03-17T16:12:55.027Z,13.7
2023-03-17T16:14:12.129Z,13.7
2023-03-17T16:15:29.014Z,13.6
2023-03-17T16:16:46.089Z,13.6
2023-03-17T16:18:03.060Z,13.5
2023-03-17T16:19:20.077Z,13.4
2023-03-17T16:20:37.008Z,13.4
2023-03-17T16:21:54.167Z,13.3
2023-03-17T16:23:11.175Z,13.4
2023-03-17T16:24:27.989Z,13.3
2023-03-17T16:25:45.552Z,13.2
2023-03-17T16:27:02.016Z,13.2
2023-03-17T16:28:19.061Z,13.2
2023-03-17T16:29:35.997Z,13.1
2023-03-17T16:30:53.070Z,13.2
2023-03-17T16:32:10.044Z,13.2
2023-03-17T16:33:27.036Z,13.1
2023-03-17T16:34:44.303Z,13.1
2023-03-17T16:36:01.142Z,13.1
2023-03-17T16:37:18.010Z,13.1
2023-03-17T16:38:35.063Z,13.1
2023-03-17T16:39:52.053Z,13.1
2023-03-17T16:41:09.038Z,13.1
2023-03-17T16:42:26.021Z,13.1
2023-03-17T16:43:43.079Z,13.1
2023-03-17T16:45:00.027Z,13.1
2023-03-17T16:46:17.204Z,13.1
2023-03-17T16:49:21.071Z,13.1
2023-03-17T16:50:38.049Z,13
2023-03-17T16:51:55.043Z,12.9
2023-03-17T16:53:12.087Z,12.9
2023-03-17T16:54:29.032Z,12.9
2023-03-17T16:55:46.065Z,12.9
2023-03-17T16:57:03.092Z,12.9
2023-03-17T16:58:21.071Z,12.8
2023-03-17T16:59:38.049Z,12.8
2023-03-17T17:00:55.050Z,12.7
2023-03-17T17:02:12.091Z,12.7
2023-03-17T17:03:29.131Z,12.6
2023-03-17T17:04:46.072Z,12.6
2023-03-17T17:06:03.122Z,12.5
2023-03-17T17:07:20.064Z,12.4
2023-03-17T17:08:37.422Z,12.4
2023-03-17T17:09:54.228Z,12.4
2023-03-17T17:11:11.098Z,12.4
2023-03-17T17:12:28.106Z,12.4
2023-03-17T17:13:45.283Z,12.3
2023-03-17T17:15:02.131Z,12.3
2023-03-17T17:16:19.171Z,12.3
2023-03-17T17:17:36.096Z,12.3
2023-03-17T17:18:53.075Z,12.3
2023-03-17T17:20:10.162Z,12.4
2023-03-17T17:21:27.091Z,12.4
2023-03-17T17:22:44.112Z,12.5
2023-03-17T17:24:01.080Z,12.4
2023-03-17T17:25:18.211Z,12.4
2023-03-17T17:26:35.299Z,12.3
2023-03-17T17:27:52.122Z,12.3
2023-03-17T17:29:09.092Z,12.3
2023-03-17T17:30:26.168Z,12.2
2023-03-17T17:31:43.128Z,12.2
2023-03-17T17:33:00.233Z,12.3
2023-03-17T17:34:17.100Z,12.2
2023-03-17T17:35:34.161Z,12.2